createdAt,value
2019-06-07T00:00:29.758Z,13.30
2019-06-07T00:01:11.446Z,14.00
2019-06-07T00:02:16.495Z,14.20
2019-06-07T00:03:23.978Z,13.70
2019-06-07T00:04:13.650Z,13.60
2019-06-07T00:05:14.947Z,13.10
2019-06-07T00:06:15.095Z,13.00
2019-06-07T00:07:14.341Z,13.00
2019-06-07T00:08:22.636Z,12.70
2019-06-07T00:09:15.317Z,13.00
2019-06-07T00:10:34.574Z,14.20
2019-06-07T00:11:18.108Z,12.10
2019-06-07T00:12:17.584Z,13.50
2019-06-07T00:13:19.850Z,13.10
2019-06-07T00:14:16.029Z,13.50
2019-06-07T00:15:18.131Z,16.40
2019-06-07T00:16:18.963Z,12.50
2019-06-07T00:17:17.555Z,13.90
2019-06-07T00:18:20.042Z,11.90
2019-06-07T00:19:16.247Z,12.80
2019-06-07T00:20:19.473Z,13.60
2019-06-07T00:21:17.852Z,12.50
2019-06-07T00:22:30.123Z,12.30
2019-06-07T00:23:20.199Z,13.60
2019-06-07T00:24:16.825Z,13.80
2019-06-07T00:25:22.863Z,14.10
2019-06-07T00:26:18.192Z,13.60
2019-06-07T00:27:18.253Z,12.30
2019-06-07T00:28:17.358Z,12.90
2019-06-07T00:29:18.863Z,12.80
2019-06-07T00:30:39.563Z,14.40
2019-06-07T00:31:22.283Z,13.20
2019-06-07T00:32:19.099Z,13.40
2019-06-07T00:33:21.723Z,12.60
2019-06-07T00:34:20.035Z,12.20
2019-06-07T00:35:22.137Z,13.00
2019-06-07T00:36:20.654Z,14.20
2019-06-07T00:37:20.638Z,13.90
2019-06-07T00:38:20.459Z,14.80
2019-06-07T00:39:22.912Z,16.30
2019-06-07T00:40:29.997Z,12.80
2019-06-07T00:41:22.269Z,12.90
2019-06-07T00:42:21.622Z,14.00
2019-06-07T00:43:25.847Z,13.10
2019-06-07T00:44:21.511Z,14.20
2019-06-07T00:45:22.431Z,13.30
2019-06-07T00:46:21.635Z,13.90
2019-06-07T00:47:24.889Z,14.30
2019-06-07T00:48:30.830Z,14.50
2019-06-07T00:49:36.058Z,14.40
2019-06-07T00:50:23.929Z,15.40
2019-06-07T00:51:21.924Z,14.50
2019-06-07T00:53:11.839Z,16.50
2019-06-07T00:53:31.064Z,13.80
2019-06-07T00:54:24.063Z,15.20
2019-06-07T00:55:27.507Z,16.10
2019-06-07T00:56:23.506Z,18.50
2019-06-07T00:57:24.459Z,14.40
2019-06-07T00:58:27.506Z,15.70
2019-06-07T00:59:28.792Z,15.30
2019-06-07T01:00:25.518Z,17.70
2019-06-07T01:01:25.595Z,17.10
2019-06-07T01:02:28.804Z,17.00
2019-06-07T01:03:25.804Z,16.60
2019-06-07T01:04:26.045Z,16.40
2019-06-07T01:05:31.153Z,15.30
2019-06-07T01:06:26.001Z,16.60
2019-06-07T01:07:25.987Z,16.80
2019-06-07T01:08:28.162Z,16.40
2019-06-07T01:09:26.078Z,16.10
2019-06-07T01:10:51.540Z,16.80
2019-06-07T01:11:26.175Z,16.80
2019-06-07T01:12:27.004Z,17.30
2019-06-07T01:13:26.979Z,18.20
2019-06-07T01:14:28.733Z,16.50
2019-06-07T01:15:29.033Z,16.60
2019-06-07T01:16:26.620Z,18.00
2019-06-07T01:17:39.191Z,17.50
2019-06-07T01:18:37.705Z,19.30
2019-06-07T01:19:28.489Z,16.40
2019-06-07T01:20:27.073Z,17.30
2019-06-07T01:21:29.953Z,17.60
2019-06-07T01:22:29.186Z,20.70
2019-06-07T01:24:05.531Z,17.90
2019-06-07T01:24:29.492Z,17.30
2019-06-07T01:25:29.044Z,18.00
2019-06-07T01:26:30.384Z,18.90
2019-06-07T01:27:28.841Z,16.80
2019-06-07T01:28:30.074Z,21.40
2019-06-07T01:29:30.841Z,20.20
2019-06-07T01:30:30.987Z,19.20
2019-06-07T01:31:31.627Z,20.70
2019-06-07T01:32:31.734Z,22.10
2019-06-07T01:33:49.883Z,21.00
2019-06-07T01:34:31.500Z,22.20
2019-06-07T01:35:30.213Z,21.10
2019-06-07T01:36:31.103Z,21.50
2019-06-07T01:37:30.532Z,21.80
2019-06-07T01:38:32.117Z,18.90
2019-06-07T01:39:31.819Z,20.00
2019-06-07T01:40:33.027Z,21.20
2019-06-07T01:41:32.495Z,22.00
2019-06-07T01:42:31.231Z,18.80
2019-06-07T01:43:31.411Z,19.30
2019-06-07T01:44:31.523Z,19.80
2019-06-07T01:45:31.703Z,18.90
2019-06-07T01:46:31.918Z,19.80
2019-06-07T01:47:32.471Z,17.80
2019-06-07T01:48:48.413Z,19.90
2019-06-07T01:49:32.536Z,17.90
2019-06-07T01:50:32.737Z,18.40
2019-06-07T01:51:32.948Z,16.20
2019-06-07T01:52:33.164Z,16.30
2019-06-07T01:53:33.370Z,15.70
2019-06-07T01:54:57.168Z,17.10
2019-06-07T01:55:33.787Z,15.80
2019-06-07T01:56:34.003Z,17.60
2019-06-07T01:57:47.409Z,17.30
2019-06-07T01:58:34.424Z,19.30
2019-06-07T01:59:34.645Z,19.20
2019-06-07T02:00:34.859Z,21.10
2019-06-07T02:01:36.990Z,19.30
2019-06-07T02:02:35.219Z,21.60
2019-06-07T02:03:35.417Z,22.30
2019-06-07T02:04:35.666Z,22.50
2019-06-07T02:05:35.885Z,24.70
2019-06-07T02:06:37.999Z,20.20
2019-06-07T02:07:36.203Z,20.10
2019-06-07T02:08:36.421Z,21.10
2019-06-07T02:09:38.535Z,24.90
2019-06-07T02:10:38.902Z,23.70
2019-06-07T02:11:36.982Z,21.10
2019-06-07T02:12:43.298Z,28.10
2019-06-07T02:13:38.997Z,23.10
2019-06-07T02:14:37.577Z,23.40
2019-06-07T02:15:37.780Z,22.10
2019-06-07T02:16:37.998Z,21.30
2019-06-07T02:17:39.991Z,19.20
2019-06-07T02:18:58.812Z,19.10
2019-06-07T02:19:40.509Z,18.90
2019-06-07T02:20:40.547Z,24.20
2019-06-07T02:21:38.893Z,21.90
2019-06-07T02:22:41.995Z,21.10
2019-06-07T02:23:39.322Z,21.20
2019-06-07T02:24:39.550Z,24.40
2019-06-07T02:25:48.685Z,21.80
2019-06-07T02:26:39.949Z,21.10
2019-06-07T02:27:40.166Z,22.50
2019-06-07T02:28:45.519Z,22.40
2019-06-07T02:29:40.580Z,21.60
2019-06-07T02:30:52.490Z,21.60
2019-06-07T02:31:40.915Z,20.80
2019-06-07T02:32:41.149Z,21.20
2019-06-07T02:33:41.360Z,21.30
2019-06-07T02:34:41.597Z,19.90
2019-06-07T02:35:41.784Z,19.80
2019-06-07T02:36:41.981Z,19.50
2019-06-07T02:37:42.168Z,19.70
2019-06-07T02:38:44.024Z,20.00
2019-06-07T02:39:42.483Z,19.90
2019-06-07T02:40:42.688Z,19.80
2019-06-07T02:41:42.905Z,20.10
2019-06-07T02:42:43.106Z,20.50
2019-06-07T02:43:43.302Z,20.10
2019-06-07T02:44:43.530Z,20.60
2019-06-07T02:45:43.994Z,19.10
2019-06-07T02:46:49.450Z,19.90
2019-06-07T02:47:44.066Z,18.80
2019-06-07T02:48:44.283Z,19.10
2019-06-07T02:49:44.773Z,19.00
2019-06-07T02:50:44.747Z,19.80
2019-06-07T02:51:44.918Z,18.50
2019-06-07T02:52:45.129Z,22.20
2019-06-07T02:53:45.328Z,22.20
2019-06-07T02:54:47.498Z,22.80
2019-06-07T02:56:34.343Z,19.50
2019-06-07T02:56:58.105Z,20.80
2019-06-07T02:57:46.088Z,20.30
2019-06-07T02:58:46.301Z,20.70
2019-06-07T03:00:06.290Z,20.00
2019-06-07T03:01:03.991Z,22.90
2019-06-07T03:01:46.852Z,20.90
2019-06-07T03:02:49.012Z,20.50
2019-06-07T03:03:47.222Z,20.40
2019-06-07T03:04:47.432Z,22.30
2019-06-07T03:05:47.669Z,21.30
2019-06-07T03:06:47.864Z,22.40
2019-06-07T03:07:49.998Z,21.40
2019-06-07T03:08:48.212Z,22.70
2019-06-07T03:09:49.421Z,21.60
2019-06-07T03:10:48.634Z,20.10
2019-06-07T03:11:48.840Z,21.20
2019-06-07T03:12:49.089Z,23.70
2019-06-07T03:13:49.269Z,22.30
2019-06-07T03:14:49.472Z,23.40
2019-06-07T03:15:51.498Z,21.40
2019-06-07T03:16:49.845Z,23.80
2019-06-07T03:17:50.062Z,20.80
2019-06-07T03:18:50.276Z,22.20
2019-06-07T03:19:50.477Z,21.40
2019-06-07T03:21:04.631Z,18.80
2019-06-07T03:21:50.889Z,19.10
2019-06-07T03:22:53.009Z,20.70
2019-06-07T03:23:51.330Z,20.50
2019-06-07T03:24:51.549Z,19.70
2019-06-07T03:25:53.522Z,20.40
2019-06-07T03:27:53.992Z,20.20
2019-06-07T03:28:53.999Z,19.80
2019-06-07T03:29:52.461Z,19.60
2019-06-07T03:31:01.964Z,19.80
2019-06-07T03:31:52.870Z,19.50
2019-06-07T03:32:53.085Z,21.00
2019-06-07T03:33:53.301Z,17.40
2019-06-07T03:34:53.504Z,17.80
2019-06-07T03:35:53.712Z,15.90
2019-06-07T03:36:53.931Z,17.00
2019-06-07T03:37:56.004Z,19.00
2019-06-07T03:38:54.338Z,19.40
2019-06-07T03:39:54.552Z,19.20
2019-06-07T03:40:56.496Z,19.10
2019-06-07T03:42:05.664Z,16.20
2019-06-07T03:42:55.082Z,16.10
2019-06-07T03:43:55.299Z,15.80
2019-06-07T03:44:55.516Z,16.60
2019-06-07T03:45:57.501Z,16.80
2019-06-07T03:46:55.998Z,14.80
2019-06-07T03:47:56.174Z,14.60
2019-06-07T03:48:58.028Z,14.50
2019-06-07T03:49:56.607Z,14.70
2019-06-07T03:51:04.586Z,16.20
2019-06-07T03:51:59.007Z,14.60
2019-06-07T03:52:57.216Z,14.40
2019-06-07T03:53:59.022Z,15.70
2019-06-07T03:54:57.602Z,15.60
2019-06-07T03:55:57.814Z,15.50
2019-06-07T03:56:58.031Z,15.10
2019-06-07T03:58:30.645Z,14.50
2019-06-07T03:58:58.465Z,14.60
2019-06-07T03:59:58.665Z,14.60
2019-06-07T04:01:02.150Z,16.80
2019-06-07T04:01:59.083Z,17.30
2019-06-07T04:02:59.319Z,17.10
2019-06-07T04:03:59.494Z,17.70
2019-06-07T04:04:59.704Z,17.40
2019-06-07T04:05:59.922Z,18.10
2019-06-07T04:07:01.217Z,18.50
2019-06-07T04:08:00.341Z,18.60
2019-06-07T04:09:01.564Z,18.00
2019-06-07T04:10:00.785Z,18.00
2019-06-07T04:11:05.546Z,18.90
2019-06-07T04:12:01.217Z,18.90
2019-06-07T04:13:01.406Z,17.20
2019-06-07T04:14:01.617Z,17.70
2019-06-07T04:15:01.869Z,19.20
2019-06-07T04:16:02.059Z,19.30
2019-06-07T04:17:03.999Z,19.00
2019-06-07T04:18:04.056Z,20.90
2019-06-07T04:19:04.521Z,17.70
2019-06-07T04:20:04.531Z,18.00
2019-06-07T04:21:02.987Z,18.20
2019-06-07T04:22:03.165Z,19.10
2019-06-07T04:23:25.092Z,17.50
2019-06-07T04:24:05.004Z,17.60
2019-06-07T04:25:03.587Z,17.90
2019-06-07T04:26:05.516Z,16.60
2019-06-07T04:27:03.985Z,17.40
2019-06-07T04:28:04.183Z,19.40
2019-06-07T04:30:07.743Z,20.00
2019-06-07T04:31:04.829Z,16.60
2019-06-07T04:32:07.006Z,16.30
2019-06-07T04:33:05.229Z,16.10
2019-06-07T04:34:05.342Z,17.30
2019-06-07T04:35:05.549Z,17.20
2019-06-07T04:36:05.755Z,16.60
2019-06-07T04:37:05.990Z,15.10
2019-06-07T04:38:06.199Z,16.30
2019-06-07T04:39:06.443Z,17.30
2019-06-07T04:40:06.537Z,19.60
2019-06-07T04:41:06.776Z,16.00
2019-06-07T04:42:08.497Z,16.30
2019-06-07T04:43:07.080Z,15.00
2019-06-07T04:44:07.277Z,15.40
2019-06-07T04:45:29.226Z,15.70
2019-06-07T04:46:11.513Z,14.70
2019-06-07T04:47:07.850Z,14.60
2019-06-07T04:48:08.053Z,14.10
2019-06-07T04:49:08.256Z,15.30
2019-06-07T04:50:08.468Z,14.70
2019-06-07T04:51:08.708Z,14.50
2019-06-07T04:52:08.911Z,14.90
2019-06-07T04:53:09.100Z,14.40
2019-06-07T04:54:09.313Z,14.00
2019-06-07T04:55:12.525Z,14.40
2019-06-07T04:56:13.503Z,15.00
2019-06-07T04:57:11.500Z,15.60
2019-06-07T04:58:10.089Z,15.60
2019-06-07T04:59:12.003Z,15.10
2019-06-07T05:00:22.670Z,16.60
2019-06-07T05:01:26.272Z,15.90
2019-06-07T05:02:10.900Z,16.10
2019-06-07T05:03:11.108Z,15.10
2019-06-07T05:04:13.001Z,14.50
2019-06-07T05:05:11.451Z,14.30
2019-06-07T05:06:13.516Z,14.40
2019-06-07T05:07:11.869Z,14.30
2019-06-07T05:08:27.399Z,14.10
2019-06-07T05:09:12.282Z,14.10
2019-06-07T05:10:12.503Z,14.50
2019-06-07T05:11:12.711Z,15.00
2019-06-07T05:12:12.923Z,14.50
2019-06-07T05:13:13.140Z,15.20
2019-06-07T05:14:13.341Z,15.50
2019-06-07T05:15:13.552Z,15.10
2019-06-07T05:16:15.501Z,15.10
2019-06-07T05:17:15.509Z,15.90
2019-06-07T05:18:14.113Z,15.20
2019-06-07T05:19:14.312Z,16.40
2019-06-07T05:20:16.094Z,15.80
2019-06-07T05:21:16.502Z,16.40
2019-06-07T05:22:14.902Z,15.90
2019-06-07T05:23:59.304Z,17.70
2019-06-07T05:24:15.076Z,17.80
2019-06-07T05:25:17.079Z,17.50
2019-06-07T05:26:15.471Z,18.20
2019-06-07T05:27:15.675Z,17.90
2019-06-07T05:28:15.893Z,18.80
2019-06-07T05:29:16.108Z,19.20
2019-06-07T05:30:57.907Z,19.80
2019-06-07T05:31:20.504Z,19.80
2019-06-07T05:32:16.716Z,20.50
2019-06-07T05:33:16.930Z,21.30
2019-06-07T05:34:17.192Z,20.20
2019-06-07T05:35:17.397Z,20.50
2019-06-07T05:36:17.559Z,21.70
2019-06-07T05:37:17.785Z,21.10
2019-06-07T05:38:21.504Z,20.40
2019-06-07T05:39:18.215Z,20.10
2019-06-07T05:40:18.429Z,21.30
2019-06-07T05:41:18.632Z,20.50
2019-06-07T05:42:18.843Z,21.30
2019-06-07T05:43:21.000Z,20.40
2019-06-07T05:44:21.020Z,20.30
2019-06-07T05:45:19.348Z,19.50
2019-06-07T05:46:19.582Z,16.80
2019-06-07T05:47:19.815Z,15.60
2019-06-07T05:48:20.004Z,15.30
2019-06-07T05:49:21.239Z,15.60
2019-06-07T05:50:39.207Z,14.90
2019-06-07T05:51:20.632Z,14.30
2019-06-07T05:52:23.516Z,14.10
2019-06-07T05:53:20.974Z,15.20
2019-06-07T05:54:21.209Z,14.40
2019-06-07T05:55:21.314Z,13.10
2019-06-07T05:56:21.578Z,12.70
2019-06-07T05:57:21.752Z,12.40
2019-06-07T05:58:21.964Z,12.00
2019-06-07T05:59:22.207Z,11.50
2019-06-07T06:00:22.288Z,11.80
2019-06-07T06:01:45.104Z,12.10
2019-06-07T06:02:24.762Z,11.10
2019-06-07T06:03:22.925Z,10.80
2019-06-07T06:04:23.147Z,10.90
2019-06-07T06:05:33.381Z,11.10
2019-06-07T06:06:23.549Z,10.50
2019-06-07T06:07:23.760Z,11.30
2019-06-07T06:08:23.973Z,11.00
2019-06-07T06:09:26.018Z,10.90
2019-06-07T06:10:24.347Z,10.50
2019-06-07T06:11:43.173Z,10.80
2019-06-07T06:12:34.722Z,10.00
2019-06-07T06:13:24.928Z,9.90
2019-06-07T06:14:25.137Z,9.80
2019-06-07T06:15:41.823Z,10.30
2019-06-07T06:16:25.551Z,10.60
2019-06-07T06:17:25.799Z,10.00
2019-06-07T06:18:27.504Z,10.40
2019-06-07T06:19:26.208Z,10.70
2019-06-07T06:20:32.892Z,10.40
2019-06-07T06:21:26.639Z,10.90
2019-06-07T06:22:26.841Z,10.90
2019-06-07T06:23:27.060Z,10.80
2019-06-07T06:24:27.267Z,11.30
2019-06-07T06:25:32.972Z,10.90
2019-06-07T06:26:27.682Z,10.60
2019-06-07T06:28:03.226Z,10.50
2019-06-07T06:28:30.779Z,9.50
2019-06-07T06:29:28.273Z,9.50
2019-06-07T06:30:28.483Z,9.60
2019-06-07T06:31:33.357Z,10.00
2019-06-07T06:32:41.947Z,9.80
2019-06-07T06:33:34.450Z,9.70
2019-06-07T06:34:31.025Z,9.40
2019-06-07T06:35:29.369Z,9.70
2019-06-07T06:36:29.573Z,10.00
2019-06-07T06:37:29.787Z,9.80
2019-06-07T06:38:30.001Z,9.50
2019-06-07T06:39:32.003Z,10.10
2019-06-07T06:40:30.343Z,9.90
2019-06-07T06:41:30.558Z,10.20
2019-06-07T06:42:30.771Z,10.20
2019-06-07T06:43:32.512Z,10.00
2019-06-07T06:44:31.094Z,9.60
2019-06-07T06:45:31.306Z,10.00
2019-06-07T06:46:38.703Z,9.80
2019-06-07T06:47:33.505Z,9.80
2019-06-07T06:48:31.836Z,10.50
2019-06-07T06:49:32.038Z,9.20
2019-06-07T06:50:32.253Z,9.60
2019-06-07T06:51:32.526Z,9.30
2019-06-07T06:52:32.609Z,10.20
2019-06-07T06:53:34.506Z,10.60
2019-06-07T06:54:40.614Z,10.40
2019-06-07T06:55:34.470Z,10.00
2019-06-07T06:56:33.302Z,10.50
2019-06-07T06:57:33.511Z,10.70
2019-06-07T06:59:18.635Z,11.20
2019-06-07T06:59:39.329Z,10.60
2019-06-07T07:00:46.394Z,11.00
2019-06-07T07:01:34.332Z,10.80
2019-06-07T07:02:34.555Z,11.00
2019-06-07T07:04:06.220Z,11.40
2019-06-07T07:04:36.504Z,10.80
2019-06-07T07:05:35.081Z,10.70
2019-06-07T07:06:37.045Z,10.40
2019-06-07T07:07:35.621Z,10.10
2019-06-07T07:08:37.510Z,9.80
2019-06-07T07:09:35.738Z,10.30
2019-06-07T07:10:35.967Z,10.00
2019-06-07T07:11:52.508Z,9.80
2019-06-07T07:12:38.017Z,9.30
2019-06-07T07:13:36.584Z,9.60
2019-06-07T07:14:36.786Z,10.10
2019-06-07T07:15:37.164Z,9.80
2019-06-07T07:16:37.217Z,9.70
2019-06-07T07:17:52.712Z,10.20
2019-06-07T07:18:39.515Z,9.60
2019-06-07T07:19:42.559Z,9.20
2019-06-07T07:20:37.973Z,9.00
2019-06-07T07:21:38.197Z,9.10
2019-06-07T07:22:42.759Z,9.20
2019-06-07T07:23:38.610Z,8.80
2019-06-07T07:24:41.817Z,8.90
2019-06-07T07:25:42.775Z,8.60
2019-06-07T07:26:39.109Z,8.80
2019-06-07T07:27:39.330Z,8.00
2019-06-07T07:28:39.541Z,8.00
2019-06-07T07:29:43.789Z,7.80
2019-06-07T07:30:39.961Z,7.70
2019-06-07T07:31:43.009Z,7.80
2019-06-07T07:32:46.478Z,8.10
2019-06-07T07:34:24.073Z,8.40
2019-06-07T07:34:46.228Z,7.70
2019-06-07T07:35:40.921Z,8.40
2019-06-07T07:36:48.302Z,7.20
2019-06-07T07:37:41.347Z,7.40
2019-06-07T07:39:06.661Z,7.70
2019-06-07T07:39:41.760Z,8.30
2019-06-07T07:42:21.638Z,7.40
2019-06-07T07:43:17.474Z,7.20
2019-06-07T07:44:22.018Z,7.40
2019-06-07T07:45:20.982Z,7.60
2019-06-07T07:46:29.019Z,7.00
2019-06-07T07:47:14.643Z,6.60
2019-06-07T07:48:18.806Z,6.50
2019-06-07T07:49:15.634Z,6.80
2019-06-07T07:50:16.448Z,6.50
2019-06-07T07:51:17.031Z,6.60
2019-06-07T07:52:17.478Z,6.40
2019-06-07T07:53:15.672Z,6.10
2019-06-07T07:54:17.478Z,6.50
2019-06-07T07:55:20.031Z,6.80
2019-06-07T07:56:17.402Z,6.50
2019-06-07T07:57:24.250Z,5.80
2019-06-07T07:58:18.486Z,5.80
2019-06-07T07:59:18.482Z,5.80
2019-06-07T08:00:49.431Z,6.10
2019-06-07T08:01:19.964Z,5.90
2019-06-07T08:02:18.981Z,6.10
2019-06-07T08:03:17.478Z,6.10
2019-06-07T08:04:17.701Z,5.70
2019-06-07T08:05:25.592Z,5.40
2019-06-07T08:06:19.981Z,5.60
2019-06-07T08:07:19.985Z,5.60
2019-06-07T08:08:19.339Z,5.20
2019-06-07T08:09:21.433Z,4.90
2019-06-07T08:10:22.567Z,4.80
2019-06-07T08:11:39.985Z,4.90
2019-06-07T08:12:19.366Z,5.30
2019-06-07T08:13:26.394Z,4.90
2019-06-07T08:14:23.856Z,4.90
2019-06-07T08:15:20.665Z,4.80
2019-06-07T08:16:21.533Z,5.00
2019-06-07T08:17:21.483Z,4.50
2019-06-07T08:18:27.934Z,4.40
2019-06-07T08:19:21.982Z,5.00
2019-06-07T08:20:21.982Z,4.70
2019-06-07T08:21:26.221Z,4.90
2019-06-07T08:22:22.524Z,4.90
2019-06-07T08:23:21.943Z,4.60
2019-06-07T08:24:21.183Z,5.00
2019-06-07T08:25:21.392Z,5.20
2019-06-07T08:26:21.608Z,4.80
2019-06-07T08:27:26.236Z,5.40
2019-06-07T08:28:24.452Z,5.20
2019-06-07T08:29:22.184Z,4.90
2019-06-07T08:31:22.618Z,4.90
2019-06-07T08:32:24.530Z,5.20
2019-06-07T08:33:27.218Z,4.60
2019-06-07T08:34:25.032Z,5.00
2019-06-07T08:36:40.675Z,5.10
2019-06-07T08:36:40.836Z,5.20
2019-06-07T08:38:13.595Z,5.00
2019-06-07T08:38:48.090Z,4.60
2019-06-07T08:39:25.083Z,4.30
2019-06-07T08:40:28.106Z,4.60
2019-06-07T08:41:24.408Z,4.30
2019-06-07T08:42:37.070Z,4.90
2019-06-07T08:43:31.842Z,4.40
2019-06-07T08:44:25.751Z,4.50
2019-06-07T08:45:25.965Z,4.30
2019-06-07T08:46:25.247Z,3.90
2019-06-07T08:47:26.395Z,3.80
2019-06-07T08:48:28.231Z,4.10
2019-06-07T08:49:26.769Z,3.90
2019-06-07T08:50:27.534Z,3.90
2019-06-07T08:51:30.007Z,4.20
2019-06-07T08:52:26.346Z,4.20
2019-06-07T08:53:28.484Z,4.20
2019-06-07T08:54:29.450Z,3.90
2019-06-07T08:55:29.937Z,4.10
2019-06-07T08:56:30.988Z,3.50
2019-06-07T08:57:27.349Z,3.70
2019-06-07T08:58:29.026Z,3.80
2019-06-07T08:59:28.367Z,3.40
2019-06-07T09:00:45.262Z,3.70
2019-06-07T09:01:29.511Z,3.50
2019-06-07T09:02:31.073Z,3.20
2019-06-07T09:03:29.989Z,3.40
2019-06-07T09:04:28.445Z,3.70
2019-06-07T09:05:31.563Z,3.20
2019-06-07T09:07:29.988Z,3.30
2019-06-07T09:08:32.988Z,3.70
2019-06-07T09:09:31.203Z,3.50
2019-06-07T09:10:29.651Z,3.50
2019-06-07T09:11:37.506Z,3.30
2019-06-07T09:12:33.990Z,3.20
2019-06-07T09:13:33.339Z,3.50
2019-06-07T09:14:30.574Z,3.10
2019-06-07T09:15:32.498Z,3.50
2019-06-07T09:16:32.516Z,3.40
2019-06-07T09:17:30.989Z,2.90
2019-06-07T09:18:42.697Z,2.80
2019-06-07T09:19:38.994Z,2.90
2019-06-07T09:20:36.970Z,2.80
2019-06-07T09:21:34.519Z,2.90
2019-06-07T09:22:33.975Z,3.00
2019-06-07T09:23:33.988Z,2.90
2019-06-07T09:24:32.950Z,3.10
2019-06-07T09:25:52.183Z,2.90
2019-06-07T09:26:32.782Z,3.10
2019-06-07T09:27:34.493Z,3.10
2019-06-07T09:28:33.205Z,2.80
2019-06-07T09:29:33.419Z,2.80
2019-06-07T09:30:33.680Z,3.00
2019-06-07T09:31:52.915Z,3.10
2019-06-07T09:32:35.151Z,3.30
2019-06-07T09:33:34.181Z,3.40
2019-06-07T09:34:34.397Z,3.20
2019-06-07T09:35:38.490Z,3.20
2019-06-07T09:36:34.830Z,2.90
2019-06-07T09:38:17.661Z,3.70
2019-06-07T09:38:35.241Z,3.10
2019-06-07T09:39:36.838Z,3.30
2019-06-07T09:40:37.493Z,3.20
2019-06-07T09:41:47.328Z,3.50
2019-06-07T09:42:36.858Z,3.30
2019-06-07T09:44:36.479Z,2.80
2019-06-07T09:45:52.503Z,2.30
2019-06-07T09:46:38.538Z,2.60
2019-06-07T09:47:39.473Z,2.70
2019-06-07T09:49:37.437Z,2.80
2019-06-07T09:50:41.044Z,2.40
2019-06-07T09:51:41.940Z,2.50
2019-06-07T09:52:58.049Z,2.50
2019-06-07T09:53:38.993Z,2.70
2019-06-07T09:55:05.892Z,2.50
2019-06-07T09:55:38.366Z,2.70
2019-06-07T09:56:42.509Z,2.80
2019-06-07T09:57:38.762Z,2.60
2019-06-07T09:58:54.600Z,3.00
2019-06-07T09:59:39.197Z,2.60
2019-06-07T10:00:42.054Z,2.90
2019-06-07T10:01:40.494Z,3.00
2019-06-07T10:02:41.531Z,2.60
2019-06-07T10:03:40.952Z,3.00
2019-06-07T10:04:41.991Z,2.40
2019-06-07T10:05:42.041Z,2.60
2019-06-07T10:06:44.003Z,2.90
2019-06-07T10:08:00.040Z,3.10
2019-06-07T10:09:56.924Z,3.30
2019-06-07T10:10:09.805Z,3.10
2019-06-07T10:10:43.386Z,2.90
2019-06-07T10:11:41.404Z,3.10
2019-06-07T10:13:04.048Z,3.10
2019-06-07T10:13:43.495Z,3.20
2019-06-07T10:14:46.460Z,3.00
2019-06-07T10:15:48.203Z,3.40
2019-06-07T10:16:47.523Z,3.20
2019-06-07T10:17:42.553Z,3.20
2019-06-07T10:18:46.509Z,3.10
2019-06-07T10:19:44.500Z,3.40
2019-06-07T10:20:44.248Z,3.50
2019-06-07T10:21:50.024Z,3.60
2019-06-07T10:22:45.061Z,3.00
2019-06-07T10:23:43.650Z,3.00
2019-06-07T10:24:44.478Z,3.20
2019-06-07T10:25:55.535Z,3.20
2019-06-07T10:26:45.002Z,3.30
2019-06-07T10:27:44.357Z,3.10
2019-06-07T10:28:44.590Z,3.20
2019-06-07T10:29:45.851Z,3.20
2019-06-07T10:30:46.521Z,2.90
2019-06-07T10:31:46.161Z,2.80
2019-06-07T10:32:47.055Z,2.90
2019-06-07T10:33:47.984Z,2.70
2019-06-07T10:34:45.587Z,3.50
2019-06-07T10:35:47.509Z,3.20
2019-06-07T10:36:46.005Z,2.80
2019-06-07T10:37:50.014Z,2.50
2019-06-07T10:38:47.001Z,2.70
2019-06-07T10:39:48.914Z,2.70
2019-06-07T10:40:46.710Z,2.70
2019-06-07T10:41:48.507Z,2.70
2019-06-07T10:42:47.092Z,2.80
2019-06-07T10:44:03.339Z,2.80
2019-06-07T10:44:48.458Z,3.10
2019-06-07T10:45:51.502Z,2.80
2019-06-07T10:46:49.456Z,3.30
2019-06-07T10:47:48.082Z,3.20
2019-06-07T10:48:48.262Z,3.10
2019-06-07T10:49:50.499Z,3.00
2019-06-07T10:51:11.422Z,2.90
2019-06-07T10:51:50.975Z,3.40
2019-06-07T10:52:50.998Z,2.90
2019-06-07T10:53:51.015Z,3.30
2019-06-07T10:54:52.955Z,3.10
2019-06-07T10:55:51.504Z,2.90
2019-06-07T10:56:50.850Z,3.30
2019-06-07T10:57:51.133Z,3.10
2019-06-07T10:58:51.454Z,3.10
2019-06-07T10:59:50.446Z,2.90
2019-06-07T11:00:52.863Z,3.10
2019-06-07T11:01:52.870Z,3.20
2019-06-07T11:02:55.304Z,3.10
2019-06-07T11:03:53.011Z,3.00
2019-06-07T11:04:52.952Z,3.30
2019-06-07T11:05:53.479Z,3.60
2019-06-07T11:06:53.497Z,3.20
2019-06-07T11:07:53.504Z,3.50
2019-06-07T11:08:54.019Z,3.20
2019-06-07T11:10:06.430Z,3.00
2019-06-07T11:10:55.020Z,2.90
2019-06-07T11:11:54.522Z,3.20
2019-06-07T11:12:52.837Z,2.80
2019-06-07T11:13:57.520Z,2.80
2019-06-07T11:14:53.961Z,3.40
2019-06-07T11:15:53.480Z,3.30
2019-06-07T11:17:07.298Z,3.40
2019-06-07T11:17:57.528Z,3.70
2019-06-07T11:18:55.542Z,3.30
2019-06-07T11:19:55.508Z,3.10
2019-06-07T11:20:58.002Z,3.00
2019-06-07T11:21:56.008Z,3.40
2019-06-07T11:22:58.514Z,3.60
2019-06-07T11:23:56.819Z,3.40
2019-06-07T11:24:57.002Z,3.50
2019-06-07T11:26:03.063Z,3.30
2019-06-07T11:26:57.017Z,3.40
2019-06-07T11:27:57.003Z,3.50
2019-06-07T11:28:56.617Z,3.60
2019-06-07T11:30:00.423Z,3.50
2019-06-07T11:30:57.516Z,3.60
2019-06-07T11:32:17.102Z,3.50
2019-06-07T11:33:00.064Z,3.20
2019-06-07T11:33:58.024Z,3.10
2019-06-07T11:34:58.548Z,2.90
2019-06-07T11:35:58.226Z,3.40
2019-06-07T11:36:59.157Z,3.30
2019-06-07T11:38:02.950Z,3.40
2019-06-07T11:39:10.932Z,3.40
2019-06-07T11:40:06.494Z,3.60
2019-06-07T11:41:00.456Z,3.50
2019-06-07T11:41:59.506Z,3.10
2019-06-07T11:43:20.069Z,3.40
2019-06-07T11:44:00.058Z,3.40
2019-06-07T11:44:59.512Z,3.30
2019-06-07T11:46:02.511Z,3.40
2019-06-07T11:47:00.544Z,3.20
2019-06-07T11:48:01.895Z,3.20
2019-06-07T11:49:20.247Z,3.70
2019-06-07T11:49:59.308Z,4.30
2019-06-07T11:50:59.793Z,3.40
2019-06-07T11:51:59.802Z,3.50
2019-06-07T11:53:08.561Z,3.60
2019-06-07T11:54:00.059Z,3.40
2019-06-07T11:55:00.311Z,3.90
2019-06-07T11:56:00.479Z,3.50
2019-06-07T11:57:08.777Z,3.50
2019-06-07T11:58:02.543Z,3.60
2019-06-07T11:59:04.550Z,3.50
2019-06-07T12:00:09.386Z,3.90
2019-06-07T12:01:03.052Z,3.30
2019-06-07T12:02:03.009Z,3.10
2019-06-07T12:03:01.630Z,2.90
2019-06-07T12:04:05.518Z,3.30
2019-06-07T12:05:01.975Z,3.20
2019-06-07T12:06:04.017Z,3.30
2019-06-07T12:07:02.373Z,3.30
2019-06-07T12:08:07.964Z,3.30
2019-06-07T12:09:04.517Z,3.10
2019-06-07T12:10:05.463Z,2.90
2019-06-07T12:11:04.716Z,3.40
2019-06-07T12:12:08.176Z,2.90
2019-06-07T12:13:12.232Z,3.40
2019-06-07T12:14:04.665Z,3.20
2019-06-07T12:15:05.523Z,2.90
2019-06-07T12:16:05.516Z,3.10
2019-06-07T12:17:09.004Z,3.50
2019-06-07T12:18:06.009Z,3.90
2019-06-07T12:19:05.471Z,3.60
2019-06-07T12:20:08.699Z,3.10
2019-06-07T12:21:09.399Z,3.00
2019-06-07T12:22:10.010Z,3.30
2019-06-07T12:23:09.962Z,2.90
2019-06-07T12:24:10.318Z,3.10
2019-06-07T12:25:08.482Z,2.90
2019-06-07T12:26:07.515Z,2.90
2019-06-07T12:27:08.018Z,3.30
2019-06-07T12:28:08.063Z,3.30
2019-06-07T12:29:07.404Z,3.20
2019-06-07T12:30:10.034Z,3.10
2019-06-07T12:31:08.511Z,3.20
2019-06-07T12:32:08.522Z,3.20
2019-06-07T12:33:09.016Z,3.10
2019-06-07T12:34:07.444Z,3.00
2019-06-07T12:35:07.632Z,3.20
2019-06-07T12:36:07.879Z,3.30
2019-06-07T12:37:11.711Z,3.10
2019-06-07T12:38:24.051Z,3.20
2019-06-07T12:39:10.067Z,3.10
2019-06-07T12:40:10.159Z,3.20
2019-06-07T12:41:10.516Z,3.60
2019-06-07T12:42:10.539Z,3.20
2019-06-07T12:43:09.016Z,3.20
2019-06-07T12:44:16.590Z,3.40
2019-06-07T12:45:12.841Z,3.10
2019-06-07T12:46:14.340Z,3.20
2019-06-07T12:47:10.721Z,3.50
2019-06-07T12:48:09.963Z,3.50
2019-06-07T12:49:12.976Z,3.20
2019-06-07T12:50:10.389Z,3.30
2019-06-07T12:51:19.410Z,3.30
2019-06-07T12:52:13.847Z,3.40
2019-06-07T12:53:13.593Z,3.20
2019-06-07T12:54:11.108Z,3.00
2019-06-07T12:55:16.039Z,3.30
2019-06-07T12:56:11.539Z,3.20
2019-06-07T12:57:13.968Z,3.20
2019-06-07T12:58:15.904Z,2.80
2019-06-07T12:59:20.060Z,3.10
2019-06-07T13:00:14.278Z,3.30
2019-06-07T13:01:16.022Z,3.30
2019-06-07T13:02:14.119Z,3.10
2019-06-07T13:03:16.259Z,3.30
2019-06-07T13:04:18.245Z,3.00
2019-06-07T13:05:15.415Z,3.20
2019-06-07T13:06:20.070Z,3.40
2019-06-07T13:07:16.020Z,3.10
2019-06-07T13:08:15.966Z,3.20
2019-06-07T13:09:15.599Z,3.00
2019-06-07T13:10:20.018Z,2.90
2019-06-07T13:11:36.490Z,3.30
2019-06-07T13:12:30.518Z,3.40
2019-06-07T13:13:15.771Z,3.30
2019-06-07T13:14:24.042Z,3.50